createdAt,value
2023-01-12T00:02:10.410Z,6.00
2023-01-12T00:04:38.322Z,6.00
2023-01-12T00:07:10.219Z,6.00
2023-01-12T00:09:37.854Z,6.00
2023-01-12T00:12:08.123Z,6.00
2023-01-12T00:14:37.006Z,6.00
2023-01-12T00:17:06.306Z,6.00
2023-01-12T00:19:34.134Z,6.00
2023-01-12T00:22:03.566Z,5.90
2023-01-12T00:24:37.490Z,6.00
2023-01-12T00:27:10.474Z,5.90
2023-01-12T00:29:38.040Z,5.90
2023-01-12T00:32:07.165Z,6.00
2023-01-12T00:34:34.288Z,5.90
2023-01-12T00:37:02.434Z,6.00
2023-01-12T00:39:29.958Z,6.00
2023-01-12T00:42:15.960Z,6.10
2023-01-12T00:45:01.591Z,6.20
2023-01-12T00:47:29.171Z,6.20
2023-01-12T00:49:56.362Z,6.10
2023-01-12T00:52:31.845Z,6.20
2023-01-12T00:54:59.908Z,6.20
2023-01-12T00:57:28.581Z,6.20
2023-01-12T00:59:58.336Z,6.20
2023-01-12T01:02:27.768Z,6.20
2023-01-12T01:04:55.645Z,6.20
2023-01-12T01:07:23.715Z,6.20
2023-01-12T01:09:51.343Z,6.30
2023-01-12T01:12:18.923Z,6.30
2023-01-12T01:14:47.974Z,6.30
2023-01-12T01:17:15.628Z,6.40
2023-01-12T01:19:43.705Z,6.30
2023-01-12T01:22:13.039Z,6.40
2023-01-12T01:24:41.145Z,6.40
2023-01-12T01:27:08.634Z,6.40
2023-01-12T01:29:35.898Z,6.40
2023-01-12T01:32:03.526Z,6.40
2023-01-12T01:34:30.761Z,6.40
2023-01-12T01:36:59.296Z,6.40
2023-01-12T01:39:26.491Z,6.50
2023-01-12T01:41:54.128Z,6.40
2023-01-12T01:44:30.180Z,6.40
2023-01-12T01:47:02.775Z,6.40
2023-01-12T01:49:41.532Z,6.40
2023-01-12T01:52:32.806Z,6.30
2023-01-12T01:55:23.841Z,6.40
2023-01-12T01:57:56.485Z,6.30
2023-01-12T02:00:24.875Z,6.30
2023-01-12T02:02:53.568Z,6.40
2023-01-12T02:05:25.225Z,6.40
2023-01-12T02:07:53.614Z,6.40
2023-01-12T02:10:21.769Z,6.50
2023-01-12T02:13:09.488Z,6.50
2023-01-12T02:16:19.137Z,6.50
2023-01-12T02:19:05.811Z,6.50
2023-01-12T02:21:42.117Z,6.50
2023-01-12T02:24:30.751Z,6.50
2023-01-12T02:27:30.025Z,6.60
2023-01-12T02:30:14.029Z,6.50
2023-01-12T02:32:52.397Z,6.50
2023-01-12T02:35:31.641Z,6.50
2023-01-12T02:38:21.448Z,6.50
2023-01-12T02:40:59.277Z,6.40
2023-01-12T02:43:30.223Z,6.50
2023-01-12T02:46:21.535Z,6.50
2023-01-12T02:48:55.547Z,6.50
2023-01-12T02:51:29.329Z,6.50
2023-01-12T02:54:02.823Z,6.50
2023-01-12T02:56:39.963Z,6.50
2023-01-12T02:59:18.523Z,6.50
2023-01-12T03:01:50.837Z,6.60
2023-01-12T03:04:19.651Z,6.60
2023-01-12T03:06:59.051Z,6.60
2023-01-12T03:09:41.826Z,6.60
2023-01-12T03:12:20.076Z,6.60
2023-01-12T03:14:49.780Z,6.70
2023-01-12T03:17:32.104Z,6.70
2023-01-12T03:20:07.236Z,6.70
2023-01-12T03:22:36.753Z,6.70
2023-01-12T03:25:10.341Z,6.80
2023-01-12T03:27:48.613Z,6.80
2023-01-12T03:30:23.253Z,6.80
2023-01-12T03:32:51.730Z,6.80
2023-01-12T03:35:23.053Z,6.80
2023-01-12T03:37:58.292Z,6.90
2023-01-12T03:40:41.911Z,6.90
2023-01-12T03:43:19.898Z,6.90
2023-01-12T03:45:49.254Z,6.90
2023-01-12T03:48:26.628Z,6.90
2023-01-12T03:51:11.950Z,6.90
2023-01-12T03:53:42.192Z,7.00
2023-01-12T03:56:13.052Z,7.00
2023-01-12T03:58:41.313Z,7.00
2023-01-12T04:01:08.718Z,7.00
2023-01-12T04:03:36.299Z,7.00
2023-01-12T04:06:03.602Z,6.90
2023-01-12T04:08:31.658Z,7.00
2023-01-12T04:10:58.861Z,7.00
2023-01-12T04:13:26.288Z,7.00
2023-01-12T04:15:53.393Z,7.00
2023-01-12T04:18:20.834Z,7.00
2023-01-12T04:20:48.116Z,7.10
2023-01-12T04:23:15.536Z,7.10
2023-01-12T04:25:42.667Z,7.10
2023-01-12T04:28:10.090Z,7.10
2023-01-12T04:30:37.293Z,7.10
2023-01-12T04:33:09.212Z,7.10
2023-01-12T04:35:36.385Z,7.10
2023-01-12T04:38:08.377Z,7.20
2023-01-12T04:40:35.698Z,7.10
2023-01-12T04:43:08.438Z,7.20
2023-01-12T04:45:41.672Z,7.20
2023-01-12T04:48:14.332Z,7.20
2023-01-12T04:50:42.517Z,7.30
2023-01-12T04:53:12.241Z,7.30
2023-01-12T04:55:41.819Z,7.30
2023-01-12T04:58:10.048Z,7.30
2023-01-12T05:00:37.237Z,7.30
2023-01-12T05:03:04.700Z,7.30
2023-01-12T05:05:33.548Z,7.30
2023-01-12T05:08:21.776Z,7.30
2023-01-12T05:10:53.330Z,7.30
2023-01-12T05:13:21.767Z,7.20
2023-01-12T05:15:48.977Z,7.30
2023-01-12T05:18:16.456Z,7.30
2023-01-12T05:20:43.723Z,7.20
2023-01-12T05:23:11.261Z,7.30
2023-01-12T05:25:38.425Z,7.30
2023-01-12T05:28:06.071Z,7.30
2023-01-12T05:30:33.268Z,7.30
2023-01-12T05:33:00.756Z,7.30
2023-01-12T05:35:28.753Z,7.20
2023-01-12T05:37:57.028Z,7.30
2023-01-12T05:40:24.671Z,7.30
2023-01-12T05:43:11.532Z,7.20
2023-01-12T05:45:38.723Z,7.20
2023-01-12T05:48:06.487Z,7.20
2023-01-12T05:50:33.656Z,7.20
2023-01-12T05:53:10.630Z,7.20
2023-01-12T05:55:38.862Z,7.10
2023-01-12T05:58:06.459Z,7.10
2023-01-12T06:00:33.787Z,7.10
2023-01-12T06:03:03.134Z,7.10
2023-01-12T06:05:30.396Z,7.10
2023-01-12T06:07:59.054Z,7.00
2023-01-12T06:10:26.405Z,7.00
2023-01-12T06:13:12.579Z,7.00
2023-01-12T06:15:39.941Z,6.90
2023-01-12T06:18:07.433Z,6.80
2023-01-12T06:20:34.865Z,6.70
2023-01-12T06:23:03.362Z,6.60
2023-01-12T06:25:31.364Z,6.40
2023-01-12T06:27:58.943Z,6.30
2023-01-12T06:30:26.067Z,6.20
2023-01-12T06:32:53.590Z,6.10
2023-01-12T06:35:20.751Z,6.10
2023-01-12T06:37:47.919Z,6.10
2023-01-12T06:40:16.000Z,6.20
2023-01-12T06:42:43.340Z,6.30
2023-01-12T06:45:11.081Z,6.40
2023-01-12T06:47:45.976Z,6.30
2023-01-12T06:50:13.440Z,6.20
2023-01-12T06:52:40.951Z,6.20
2023-01-12T06:55:09.183Z,6.10
2023-01-12T06:57:36.463Z,6.00
2023-01-12T07:00:05.583Z,6.00
2023-01-12T07:02:32.956Z,5.90
2023-01-12T07:05:00.514Z,5.70
2023-01-12T07:07:27.751Z,5.70
2023-01-12T07:09:55.266Z,5.60
2023-01-12T07:12:22.694Z,5.50
2023-01-12T07:14:50.207Z,5.50
2023-01-12T07:17:17.911Z,5.50
2023-01-12T07:19:45.371Z,5.40
2023-01-12T07:22:12.696Z,5.40
2023-01-12T07:24:40.314Z,5.40
2023-01-12T07:27:07.463Z,5.30
2023-01-12T07:29:34.870Z,5.30
2023-01-12T07:32:02.155Z,5.30
2023-01-12T07:34:30.049Z,5.20
2023-01-12T07:36:57.524Z,5.30
2023-01-12T07:39:24.927Z,5.20
2023-01-12T07:42:10.680Z,5.30
2023-01-12T07:44:38.334Z,5.30
2023-01-12T07:47:05.522Z,5.30
2023-01-12T07:49:32.912Z,5.20
2023-01-12T07:52:00.234Z,5.30
2023-01-12T07:54:27.675Z,5.30
2023-01-12T07:56:54.895Z,5.30
2023-01-12T07:59:22.444Z,5.30
2023-01-12T08:01:49.584Z,5.40
2023-01-12T08:04:17.084Z,5.40
2023-01-12T08:06:44.309Z,5.40
2023-01-12T08:09:11.798Z,5.40
2023-01-12T08:11:39.021Z,5.40
2023-01-12T08:14:06.726Z,5.40
2023-01-12T08:16:38.230Z,5.30
2023-01-12T08:19:15.747Z,5.30
2023-01-12T08:21:49.680Z,5.30
2023-01-12T08:24:21.955Z,5.40
2023-01-12T08:26:51.864Z,5.40
2023-01-12T08:29:33.484Z,5.40
2023-01-12T08:32:04.965Z,5.40
2023-01-12T08:34:35.139Z,5.40
2023-01-12T08:37:06.287Z,5.50
2023-01-12T08:39:35.353Z,5.50
2023-01-12T08:42:03.851Z,5.60
2023-01-12T08:44:34.329Z,5.70
2023-01-12T08:47:02.626Z,5.70
2023-01-12T08:49:31.393Z,5.80
2023-01-12T08:51:58.741Z,5.90
2023-01-12T08:54:26.325Z,5.90
2023-01-12T08:56:54.759Z,6.00
2023-01-12T08:59:22.582Z,6.00
2023-01-12T09:01:50.030Z,6.00
2023-01-12T09:04:17.883Z,6.10
2023-01-12T09:06:45.670Z,6.10
2023-01-12T09:09:16.858Z,6.20
2023-01-12T09:11:45.068Z,6.30
2023-01-12T09:14:14.344Z,6.30
2023-01-12T09:16:42.558Z,6.40
2023-01-12T09:19:10.330Z,6.40
2023-01-12T09:21:40.233Z,6.40
2023-01-12T09:24:08.262Z,6.40
2023-01-12T09:26:40.906Z,6.50
2023-01-12T09:29:10.615Z,6.50
2023-01-12T09:31:40.024Z,6.60
2023-01-12T09:34:07.672Z,6.70
2023-01-12T09:36:37.585Z,6.70
2023-01-12T09:39:06.102Z,6.80
2023-01-12T09:41:57.113Z,6.80
2023-01-12T09:45:08.562Z,6.90
2023-01-12T09:47:56.818Z,7.00
2023-01-12T09:50:29.101Z,7.00
2023-01-12T09:53:32.162Z,7.10
2023-01-12T09:56:18.072Z,7.10
2023-01-12T09:58:57.095Z,7.20
2023-01-12T10:01:29.726Z,7.20
2023-01-12T10:04:01.199Z,7.30
2023-01-12T10:06:29.907Z,7.30
2023-01-12T10:09:00.444Z,7.40
2023-01-12T10:11:36.244Z,7.40
2023-01-12T10:14:33.724Z,7.40
2023-01-12T10:17:12.849Z,7.50
2023-01-12T10:20:00.403Z,7.60
2023-01-12T10:22:38.184Z,7.70
2023-01-12T10:25:23.123Z,7.60
2023-01-12T10:27:53.741Z,7.70
2023-01-12T10:30:31.736Z,7.70
2023-01-12T10:33:16.865Z,7.80
2023-01-12T10:36:03.649Z,7.90
2023-01-12T10:38:39.786Z,7.90
2023-01-12T10:41:14.551Z,7.90
2023-01-12T10:43:43.204Z,7.90
2023-01-12T10:46:19.451Z,7.90
2023-01-12T10:48:49.221Z,7.90
2023-01-12T10:51:22.011Z,7.90
2023-01-12T10:54:10.772Z,8.00
2023-01-12T10:56:41.563Z,8.10
2023-01-12T10:59:21.487Z,8.10
2023-01-12T11:02:13.420Z,8.20
2023-01-12T11:04:44.026Z,8.20
2023-01-12T11:07:22.804Z,8.20
2023-01-12T11:09:50.190Z,8.20
2023-01-12T11:12:40.076Z,8.10
2023-01-12T11:15:10.447Z,8.20
2023-01-12T11:17:50.235Z,8.20
2023-01-12T11:20:41.091Z,8.20
2023-01-12T11:23:34.009Z,8.30
2023-01-12T11:26:08.126Z,8.30
2023-01-12T11:28:40.307Z,8.30
2023-01-12T11:31:12.687Z,8.30
2023-01-12T11:33:48.722Z,8.30
2023-01-12T11:36:24.385Z,8.30
2023-01-12T11:39:02.561Z,8.40
2023-01-12T11:42:09.093Z,8.30
2023-01-12T11:44:40.063Z,8.30
2023-01-12T11:47:15.976Z,8.30
2023-01-12T11:49:53.711Z,8.30
2023-01-12T11:52:21.316Z,8.30
2023-01-12T11:54:48.510Z,8.30
2023-01-12T11:57:57.153Z,8.30
2023-01-12T12:00:42.415Z,8.30
2023-01-12T12:03:20.917Z,8.30
2023-01-12T12:06:19.430Z,8.40
2023-01-12T12:09:01.510Z,8.40
2023-01-12T12:11:44.926Z,8.40
2023-01-12T12:14:31.389Z,8.50
2023-01-12T12:17:11.227Z,8.50
2023-01-12T12:19:50.214Z,8.50
2023-01-12T12:22:35.354Z,8.50
2023-01-12T12:25:38.125Z,8.50
2023-01-12T12:28:43.413Z,8.50
2023-01-12T12:31:16.992Z,8.50
2023-01-12T12:33:53.331Z,8.50
2023-01-12T12:36:46.776Z,8.50
2023-01-12T12:39:22.956Z,8.50
2023-01-12T12:42:17.565Z,8.60
2023-01-12T12:45:18.130Z,8.60
2023-01-12T12:48:04.307Z,8.60
2023-01-12T12:53:35.893Z,8.60
2023-01-12T12:56:07.791Z,8.60
2023-01-12T12:58:42.140Z,8.60
2023-01-12T13:01:23.210Z,8.60
2023-01-12T13:03:54.816Z,8.60
2023-01-12T13:06:21.922Z,8.50
2023-01-12T13:08:55.098Z,8.50
2023-01-12T13:11:48.715Z,8.50
2023-01-12T13:14:29.435Z,8.40
2023-01-12T13:17:25.615Z,8.40
2023-01-12T13:20:08.273Z,8.40
2023-01-12T13:22:50.609Z,8.40
2023-01-12T13:25:22.239Z,8.40
2023-01-12T13:28:03.963Z,8.40
2023-01-12T13:30:31.454Z,8.30
2023-01-12T13:33:24.532Z,8.30
2023-01-12T13:35:52.052Z,8.40
2023-01-12T13:38:34.222Z,8.40
2023-01-12T13:41:02.738Z,8.40
2023-01-12T13:43:40.605Z,8.40
2023-01-12T13:46:17.531Z,8.40
2023-01-12T13:48:50.895Z,8.40
2023-01-12T13:51:47.085Z,8.30
2023-01-12T13:54:15.930Z,8.30
2023-01-12T13:56:52.401Z,8.20
2023-01-12T13:59:19.568Z,8.20
2023-01-12T14:01:48.893Z,8.20
2023-01-12T14:04:19.893Z,8.10
2023-01-12T14:07:24.839Z,8.00
2023-01-12T14:10:17.107Z,8.00
2023-01-12T14:13:10.247Z,8.00
2023-01-12T14:15:59.836Z,8.00
2023-01-12T14:18:40.250Z,8.00
2023-01-12T14:21:33.202Z,7.90
2023-01-12T14:24:26.892Z,7.90
2023-01-12T14:26:54.383Z,7.90
2023-01-12T14:29:21.961Z,7.80
2023-01-12T14:31:52.361Z,7.70
2023-01-12T14:34:29.137Z,7.70
2023-01-12T14:36:56.868Z,7.60
2023-01-12T14:39:27.004Z,7.50
2023-01-12T14:42:14.642Z,7.40
2023-01-12T14:45:09.783Z,7.40
2023-01-12T14:47:37.693Z,7.30
2023-01-12T14:50:14.798Z,7.30
2023-01-12T14:52:44.936Z,7.20
2023-01-12T14:55:41.799Z,7.10
2023-01-12T14:58:19.998Z,7.10
2023-01-12T15:00:48.038Z,7.10
2023-01-12T15:03:31.891Z,7.10
2023-01-12T15:06:03.547Z,7.00
2023-01-12T15:08:31.176Z,7.10
2023-01-12T15:11:06.275Z,7.00
2023-01-12T15:13:35.225Z,7.00
2023-01-12T15:16:23.355Z,7.00
2023-01-12T15:19:09.444Z,7.00
2023-01-12T15:21:57.502Z,7.00
2023-01-12T15:24:43.485Z,6.90
2023-01-12T15:27:21.793Z,6.90
2023-01-12T15:29:49.084Z,6.80
2023-01-12T15:32:47.706Z,6.80
2023-01-12T15:35:21.858Z,6.80
2023-01-12T15:37:50.786Z,6.70
2023-01-12T15:40:18.306Z,6.70
2023-01-12T15:42:46.459Z,6.60
2023-01-12T15:45:32.725Z,6.60
2023-01-12T15:48:01.796Z,6.50
2023-01-12T15:50:29.398Z,6.50
2023-01-12T15:52:58.808Z,6.50
2023-01-12T15:55:26.494Z,6.40
2023-01-12T15:57:53.951Z,6.40
2023-01-12T16:00:23.183Z,6.40
2023-01-12T16:02:52.003Z,6.40
2023-01-12T16:05:22.334Z,6.40
2023-01-12T16:07:50.209Z,6.40
2023-01-12T16:10:18.951Z,6.30
2023-01-12T16:12:47.932Z,6.30
2023-01-12T16:15:26.190Z,6.30
2023-01-12T16:17:53.598Z,6.30
2023-01-12T16:20:21.092Z,6.30
2023-01-12T16:22:49.009Z,6.30
2023-01-12T16:25:16.405Z,6.30
2023-01-12T16:27:43.990Z,6.30
2023-01-12T16:30:16.104Z,6.30
2023-01-12T16:32:46.937Z,6.30
2023-01-12T16:35:15.464Z,6.30
2023-01-12T16:37:43.516Z,6.30
2023-01-12T16:40:11.592Z,6.30
2023-01-12T16:42:39.013Z,6.30
2023-01-12T16:45:06.698Z,6.30
2023-01-12T16:47:34.324Z,6.20
2023-01-12T16:50:01.546Z,6.20
2023-01-12T16:52:29.062Z,6.20
2023-01-12T16:54:56.330Z,6.10
2023-01-12T16:57:23.876Z,6.10
2023-01-12T16:59:51.391Z,6.10
2023-01-12T17:02:19.539Z,6.10
2023-01-12T17:04:49.166Z,6.10
2023-01-12T17:07:16.787Z,6.20
2023-01-12T17:09:44.360Z,6.30
2023-01-12T17:12:11.981Z,6.30
2023-01-12T17:14:39.446Z,6.40
2023-01-12T17:17:10.642Z,6.40
2023-01-12T17:19:42.654Z,6.50
2023-01-12T17:22:10.868Z,6.50
2023-01-12T17:24:42.745Z,6.60
2023-01-12T17:27:11.090Z,6.70
2023-01-12T17:29:38.406Z,6.80
2023-01-12T17:32:07.004Z,6.80
2023-01-12T17:34:38.671Z,6.90
2023-01-12T17:37:08.204Z,6.90
2023-01-12T17:39:37.428Z,7.00
2023-01-12T17:42:23.417Z,7.00
2023-01-12T17:44:50.873Z,7.10
2023-01-12T17:47:18.486Z,7.10
2023-01-12T17:49:47.779Z,7.20
2023-01-12T17:52:15.632Z,7.20
2023-01-12T17:54:43.145Z,7.20
2023-01-12T17:57:11.291Z,7.20
2023-01-12T17:59:38.504Z,7.20
2023-01-12T18:02:07.201Z,7.20
2023-01-12T18:04:34.438Z,7.20
2023-01-12T18:07:01.866Z,7.20
2023-01-12T18:09:29.447Z,7.20
2023-01-12T18:11:56.959Z,7.20
2023-01-12T18:14:24.994Z,7.20
2023-01-12T18:16:52.565Z,7.30
2023-01-12T18:19:19.735Z,7.30
2023-01-12T18:21:49.595Z,7.30
2023-01-12T18:24:16.752Z,7.30
2023-01-12T18:26:45.741Z,7.30
2023-01-12T18:29:13.371Z,7.30
2023-01-12T18:31:42.936Z,7.30
2023-01-12T18:34:10.896Z,7.30
2023-01-12T18:36:41.121Z,7.30
2023-01-12T18:39:11.608Z,7.20
2023-01-12T18:41:57.665Z,7.20
2023-01-12T18:44:25.452Z,7.20
2023-01-12T18:47:12.028Z,7.20
2023-01-12T18:49:40.047Z,7.20
2023-01-12T18:52:30.182Z,7.20
2023-01-12T18:54:57.567Z,7.20
2023-01-12T18:57:27.508Z,7.20
2023-01-12T19:00:00.199Z,7.20
2023-01-12T19:02:28.794Z,7.10
2023-01-12T19:05:12.443Z,7.10
2023-01-12T19:07:51.963Z,7.10
2023-01-12T19:10:19.395Z,7.20
2023-01-12T19:12:46.954Z,7.20
2023-01-12T19:15:32.739Z,7.20
2023-01-12T19:18:00.629Z,7.30
2023-01-12T19:20:29.995Z,7.30
2023-01-12T19:23:16.199Z,7.30
2023-01-12T19:26:12.336Z,7.30
2023-01-12T19:28:40.726Z,7.30
2023-01-12T19:31:10.878Z,7.30
2023-01-12T19:33:39.305Z,7.40
2023-01-12T19:36:09.053Z,7.30
2023-01-12T19:38:37.315Z,7.30
2023-01-12T19:41:29.797Z,7.30
2023-01-12T19:44:00.748Z,7.30
2023-01-12T19:46:28.174Z,7.30
2023-01-12T19:48:55.664Z,7.30
2023-01-12T19:51:23.247Z,7.20
2023-01-12T19:53:50.744Z,7.20
2023-01-12T19:56:18.078Z,7.20
2023-01-12T19:58:45.859Z,7.20
2023-01-12T20:01:23.635Z,7.20
2023-01-12T20:03:51.234Z,7.20
2023-01-12T20:06:18.411Z,7.30
2023-01-12T20:08:45.810Z,7.30
2023-01-12T20:11:13.104Z,7.30
2023-01-12T20:13:40.636Z,7.30
2023-01-12T20:16:10.380Z,7.40
2023-01-12T20:18:38.238Z,7.30
2023-01-12T20:21:09.536Z,7.30
2023-01-12T20:23:37.291Z,7.40
2023-01-12T20:26:12.521Z,7.40
2023-01-12T20:28:40.261Z,7.40
2023-01-12T20:31:13.324Z,7.40
2023-01-12T20:33:40.736Z,7.30
2023-01-12T20:36:15.903Z,7.20
2023-01-12T20:38:43.404Z,7.20
2023-01-12T20:41:11.044Z,7.10
2023-01-12T20:43:38.625Z,7.10
2023-01-12T20:46:10.461Z,7.00
2023-01-12T20:48:40.871Z,7.10
2023-01-12T20:51:10.410Z,7.10
2023-01-12T20:53:38.290Z,7.20
2023-01-12T20:56:06.518Z,7.20
2023-01-12T20:58:34.091Z,7.10
2023-01-12T21:01:01.655Z,7.20
2023-01-12T21:03:29.347Z,7.30
2023-01-12T21:05:56.554Z,7.30
2023-01-12T21:08:24.065Z,7.40
2023-01-12T21:10:52.909Z,7.40
2023-01-12T21:13:21.256Z,7.40
2023-01-12T21:15:48.603Z,7.40
2023-01-12T21:18:15.995Z,7.50
2023-01-12T21:20:43.745Z,7.50
2023-01-12T21:23:11.561Z,7.50
2023-01-12T21:25:44.759Z,7.50
2023-01-12T21:28:12.500Z,7.50
2023-01-12T21:30:39.973Z,7.50
2023-01-12T21:33:07.480Z,7.60
2023-01-12T21:35:34.771Z,7.60
2023-01-12T21:38:02.756Z,7.60
2023-01-12T21:40:30.611Z,7.50
2023-01-12T21:43:10.585Z,7.50
2023-01-12T21:45:40.510Z,7.50
2023-01-12T21:48:09.004Z,7.50
2023-01-12T21:50:37.170Z,7.50
2023-01-12T21:53:06.234Z,7.50
2023-01-12T21:55:34.384Z,7.50
2023-01-12T21:58:02.996Z,7.50
2023-01-12T22:00:31.006Z,7.50
2023-01-12T22:02:58.614Z,7.50
2023-01-12T22:05:26.009Z,7.60
2023-01-12T22:07:55.205Z,7.60
2023-01-12T22:10:30.057Z,7.60
2023-01-12T22:13:03.109Z,7.60
2023-01-12T22:15:30.772Z,7.60
2023-01-12T22:17:58.189Z,7.60
2023-01-12T22:20:27.769Z,7.60
2023-01-12T22:22:54.992Z,7.60
2023-01-12T22:25:22.455Z,7.60
2023-01-12T22:27:49.653Z,7.60
2023-01-12T22:30:24.120Z,7.60
2023-01-12T22:32:56.004Z,7.60
2023-01-12T22:35:26.367Z,7.60
2023-01-12T22:37:54.691Z,7.60
2023-01-12T22:40:22.213Z,7.60
2023-01-12T22:43:07.881Z,7.60
2023-01-12T22:45:37.544Z,7.50
2023-01-12T22:48:05.225Z,7.50
2023-01-12T22:50:32.810Z,7.60
2023-01-12T22:52:59.948Z,7.60
2023-01-12T22:55:27.400Z,7.60
2023-01-12T22:57:54.809Z,7.60
2023-01-12T23:00:22.397Z,7.60
2023-01-12T23:03:02.490Z,7.60
2023-01-12T23:05:56.250Z,7.60
2023-01-12T23:08:24.149Z,7.50
2023-01-12T23:10:52.785Z,7.50
2023-01-12T23:13:21.341Z,7.50
2023-01-12T23:15:57.573Z,7.40
2023-01-12T23:18:28.674Z,7.40
2023-01-12T23:21:11.070Z,7.40
2023-01-12T23:23:39.104Z,7.40
2023-01-12T23:26:09.117Z,7.40
2023-01-12T23:28:40.988Z,7.50
2023-01-12T23:31:11.924Z,7.40
2023-01-12T23:33:40.224Z,7.40
2023-01-12T23:36:13.688Z,7.40
2023-01-12T23:38:41.866Z,7.40
2023-01-12T23:41:13.351Z,7.40
2023-01-12T23:43:41.186Z,7.40
2023-01-12T23:46:09.253Z,7.40
2023-01-12T23:48:36.691Z,7.40
2023-01-12T23:51:05.134Z,7.30
2023-01-12T23:53:32.683Z,7.40
2023-01-12T23:56:07.944Z,7.40
2023-01-12T23:58:35.884Z,7.40
